Terminal Aerodrome Forecast
Issued by NWS

Home | Current Version | Previous Version | Text Only | Print | Product List | Glossary On
Versions: 1 2 3 4 5 6 7 8 9 10 11 12 13 14
000
FTUS45 KREV 022336
TAFMMH
TAF
KMMH 022336Z 0300/0324 27011G22KT P6SM SCT070 BKN140
     FM030600 VRB03KT P6SM SCT140
     FM032000 24012KT P6SM SKC=

USA.gov is the U.S. government's official web portal to all federal, state and local government web resources and services.